Terminal Aerodrome Forecast
Issued by NWS Duluth, MN

Home | Current Version | Previous Version | Text Only | Print | Product List | Glossary On
Versions: 1 2 3 4 5 6 7 8 9 10 11 12 13 14 15 16 17 18 19 20 21 22
284
FTUS43 KDLH 241731 AAC
TAFDLH
TAF AMD
KDLH 241731Z 2418/2518 03008KT 5SM BR OVC006
      TEMPO 2418/2420 P6SM NSW OVC012
     FM242000 36010KT P6SM BKN012
     FM242200 06008KT P6SM OVC025
     FM250800 08009G17KT P6SM BKN015
     FM251400 09012G20KT P6SM BKN025=

USA.gov is the U.S. government's official web portal to all federal, state and local government web resources and services.